Time;durP1;ratioP1;P1;durP2;ratioP2;P2;SDS_P1;SDS_P2;PMS_P1;PMS_P2;Temp;Humidity;BMP_temperature;BMP_pressure;BME280_temperature;BME280_humidity;BME280_pressure;Samples;Min_cycle;Max_cycle;Signal;HPM_P1;HPM_P2
2022/09/01 00:01:23;405253.00;1.35;698.84;0.00;0.00;0.62;;;;;20.50;1.00;;;;;;2276873;61;1161;-84
2022/09/01 00:03:51;132971.00;0.44;230.45;0.00;0.00;0.62;;;;;20.70;1.00;;;;;;2276906;61;1143;-84
2022/09/01 00:06:21;234326.00;0.78;404.99;24644.00;0.08;43.31;;;;;20.80;1.00;;;;;;2276808;61;1989;-85
2022/09/01 00:08:48;219255.00;0.73;379.06;0.00;0.00;0.62;;;;;20.70;1.00;;;;;;2276840;61;1296;-86
2022/09/01 00:11:15;446794.00;1.49;770.27;0.00;0.00;0.62;;;;;20.90;1.00;;;;;;2276913;61;1157;-85
2022/09/01 00:13:43;424269.00;1.41;731.53;20292.00;0.07;35.78;;;;;20.80;1.00;;;;;;2276825;61;1331;-86
2022/09/01 00:16:14;402444.00;1.34;694.01;0.00;0.00;0.62;;;;;20.90;1.00;;;;;;2276820;61;1088;-86
2022/09/01 00:18:42;206868.00;0.69;357.74;0.00;0.00;0.62;;;;;21.10;1.00;;;;;;2276832;61;1392;-85
2022/09/01 00:21:09;554277.00;1.85;955.33;79469.00;0.26;138.12;;;;;21.30;1.00;;;;;;2276819;61;1132;-85
2022/09/01 00:23:35;117363528.00;391.21;65482868.00;116997072.00;389.99;64870844.00;;;;;21.10;1.00;;;;;;2276875;61;1125;-86
2022/09/01 00:26:02;280716.00;0.94;484.77;0.00;0.00;0.62;;;;;21.40;1.00;;;;;;2276827;61;1656;-86
2022/09/01 00:28:29;553862.00;1.85;954.62;178119.00;0.59;308.25;;;;;21.50;1.00;;;;;;2276670;61;2013;-86
2022/09/01 00:30:57;360120.00;1.20;621.26;0.00;0.00;0.62;;;;;21.70;1.00;;;;;;2276818;61;1160;-85
2022/09/01 00:33:25;142514.00;0.48;246.90;0.00;0.00;0.62;;;;;21.60;1.00;;;;;;2276788;61;1104;-86
2022/09/01 00:35:52;216283.00;0.72;373.95;0.00;0.00;0.62;;;;;21.00;1.00;;;;;;2276845;61;1112;-85
2022/09/01 00:38:19;277500.00;0.93;479.24;0.00;0.00;0.62;;;;;20.90;1.00;;;;;;2276689;61;1285;-86
2022/09/01 00:40:46;230601.00;0.77;398.58;0.00;0.00;0.62;;;;;20.90;1.00;;;;;;2276690;61;1042;-86
2022/09/01 00:43:16;203379.00;0.68;351.74;0.00;0.00;0.62;;;;;21.10;1.00;;;;;;2276817;61;985;-85
2022/09/01 00:45:43;279162.00;0.93;482.10;0.00;0.00;0.62;;;;;21.10;1.00;;;;;;2276726;61;1536;-85
2022/09/01 00:48:10;461228.00;1.54;795.10;65580.00;0.22;114.12;;;;;21.10;1.00;;;;;;2276647;61;1922;-85
2022/09/01 00:50:39;295742.00;0.99;510.60;72090.00;0.24;125.37;;;;;21.30;1.00;;;;;;2276753;61;1127;-86
2022/09/01 00:53:08;446204.00;1.49;769.25;73622.00;0.25;128.02;;;;;21.50;1.00;;;;;;2276734;61;1468;-86
2022/09/01 00:55:37;394066.00;1.31;679.60;68458.00;0.23;119.10;;;;;21.70;1.00;;;;;;2276672;61;1037;-86
2022/09/01 00:58:07;536289.00;1.79;924.33;71629.00;0.24;124.58;;;;;21.60;1.00;;;;;;2276682;61;1382;-85
2022/09/01 01:00:39;453617.00;1.51;782.00;8040.00;0.03;14.55;;;;;21.40;1.00;;;;;;2276697;61;1028;-86
2022/09/01 01:03:07;295352.00;0.98;509.93;26711.00;0.09;46.89;;;;;21.30;1.00;;;;;;2276646;61;1012;-84
2022/09/01 01:05:40;142901.00;0.48;247.57;0.00;0.00;0.62;;;;;21.40;1.00;;;;;;2276683;61;1009;-86
2022/09/01 01:08:10;406485.00;1.35;700.95;21158.00;0.07;37.28;;;;;21.50;1.00;;;;;;2276634;61;1921;-86
2022/09/01 01:10:41;247375.00;0.82;427.44;0.00;0.00;0.62;;;;;21.40;1.00;;;;;;2278445;61;1177;-86
2022/09/01 01:13:11;261343.00;0.87;451.46;0.00;0.00;0.62;;;;;21.20;1.00;;;;;;2280726;61;1005;-87
2022/09/01 01:15:42;486950.00;1.62;839.36;0.00;0.00;0.62;;;;;21.10;1.00;;;;;;2280659;61;1290;-87
2022/09/01 01:18:09;174728.00;0.58;302.41;0.00;0.00;0.62;;;;;21.20;1.00;;;;;;2280719;61;1358;-86
2022/09/01 01:23:29;376912.00;1.26;650.12;8557.00;0.03;15.45;;;;;21.20;1.00;;;;;;2276563;61;745;-86
2022/09/01 01:25:59;292920.00;0.98;505.75;28113.00;0.09;49.32;;;;;21.30;1.00;;;;;;2276618;61;1128;-86
2022/09/01 01:28:30;565848.00;1.89;975.29;65671.00;0.22;114.28;;;;;21.30;1.00;;;;;;2276585;61;2000;-86
2022/09/01 01:31:00;205421.00;0.68;355.25;0.00;0.00;0.62;;;;;21.10;1.00;;;;;;2278385;61;1168;-86
2022/09/01 01:33:30;388435.00;1.29;669.92;0.00;0.00;0.62;;;;;20.70;1.00;;;;;;2280650;61;1096;-86
2022/09/01 01:35:58;308130.00;1.03;531.90;0.00;0.00;0.62;;;;;20.80;1.00;;;;;;2280631;61;1169;-86
2022/09/01 01:38:27;255027.00;0.85;440.60;0.00;0.00;0.62;;;;;20.90;1.00;;;;;;2280615;61;1392;-85
2022/09/01 01:40:55;601515.00;2.01;1036.84;70422.00;0.23;122.49;;;;;20.80;1.00;;;;;;2277542;61;1233;-85
2022/09/01 01:43:25;365484.00;1.22;630.47;66243.00;0.22;115.27;;;;;20.90;1.00;;;;;;2276504;61;1118;-87
2022/09/01 01:45:55;512113.00;1.71;882.68;69496.00;0.23;120.89;;;;;20.80;1.00;;;;;;2276551;61;1001;-88
2022/09/01 01:48:23;258056.00;0.86;445.81;0.00;0.00;0.62;;;;;20.70;1.00;;;;;;2276466;61;1986;-86
2022/09/01 01:50:51;478707.00;1.60;825.17;0.00;0.00;0.62;;;;;20.80;1.00;;;;;;2276222;61;1035;-86
2022/09/01 01:53:18;435085.00;1.45;750.13;15125.00;0.05;26.83;;;;;20.70;1.00;;;;;;2276562;61;992;-86
2022/09/01 01:55:48;268225.00;0.89;463.29;0.00;0.00;0.62;;;;;20.50;1.00;;;;;;2276481;61;913;-86
2022/09/01 01:58:16;242018.00;0.81;418.22;0.00;0.00;0.62;;;;;20.50;1.00;;;;;;2276562;61;1273;-86
2022/09/01 02:00:45;492291.00;1.64;848.55;0.00;0.00;0.62;;;;;20.80;1.00;;;;;;2276585;61;1074;-86
2022/09/01 02:03:16;496659.00;1.66;856.07;25164.00;0.08;44.21;;;;;20.80;1.00;;;;;;2276492;61;1145;-86
2022/09/01 02:05:43;406432.00;1.35;700.86;9443.00;0.03;16.98;;;;;20.70;1.00;;;;;;2276481;61;1132;-86
2022/09/01 02:08:11;343148.00;1.14;592.08;57514.00;0.19;100.18;;;;;20.60;1.00;;;;;;2276721;61;1998;-87
2022/09/01 02:10:42;302079.00;1.01;521.49;82883.00;0.28;144.02;;;;;20.60;1.00;;;;;;2280526;61;1092;-86
2022/09/01 02:13:15;309565.00;1.03;534.36;0.00;0.00;0.62;;;;;20.70;1.00;;;;;;2280507;61;1092;-86
2022/09/01 02:15:45;373311.00;1.24;643.93;37708.00;0.13;65.92;;;;;20.40;1.00;;;;;;2280483;61;1101;-85
2022/09/01 02:18:15;276478.00;0.92;477.48;0.00;0.00;0.62;;;;;20.00;1.00;;;;;;2280460;61;1460;-85
2022/09/01 02:20:42;120032880.00;400.11;70057600.00;0.00;0.00;0.62;;;;;19.80;1.00;;;;;;2280485;61;1063;-84
2022/09/01 02:23:10;302216.00;1.01;521.73;0.00;0.00;0.62;;;;;20.20;1.00;;;;;;2280491;61;1113;-86
2022/09/01 02:25:42;590416.00;1.97;1017.67;83246.00;0.28;144.64;;;;;20.50;1.00;;;;;;2280464;61;1198;-86
2022/09/01 02:28:14;362315.00;1.21;625.03;81666.00;0.27;141.91;;;;;20.60;1.00;;;;;;2280370;61;1981;-83
2022/09/01 02:30:42;212402.00;0.71;367.27;0.00;0.00;0.62;;;;;20.70;1.00;;;;;;2276396;61;1264;-85
2022/09/01 02:33:12;294657.00;0.98;508.74;0.00;0.00;0.62;;;;;20.70;1.00;;;;;;2276434;61;922;-86
2022/09/01 02:35:40;499326.00;1.66;860.66;82714.00;0.28;143.73;;;;;20.40;1.00;;;;;;2276387;61;910;-85
2022/09/01 02:38:07;436742.00;1.46;752.98;80244.00;0.27;139.46;;;;;19.90;1.00;;;;;;2276386;61;1374;-83
2022/09/01 02:40:34;487921.00;1.63;841.03;69870.00;0.23;121.54;;;;;19.40;1.00;;;;;;2276257;61;1052;-87
2022/09/01 02:43:01;523613.00;1.75;902.49;70334.00;0.23;122.34;;;;;19.80;1.00;;;;;;2276393;61;1018;-85
2022/09/01 02:45:28;612333.00;2.04;1055.52;71270.00;0.24;123.95;;;;;20.00;1.00;;;;;;2276375;61;1061;-85
2022/09/01 02:47:56;446134.00;1.49;769.13;68356.00;0.23;118.92;;;;;20.10;1.00;;;;;;2276332;61;1988;-85
2022/09/01 02:50:26;335747.00;1.12;579.36;134542.00;0.45;233.16;;;;;20.20;1.00;;;;;;2276336;61;1314;-85
2022/09/01 02:52:53;218932.00;0.73;378.51;65667.00;0.22;114.27;;;;;20.00;1.00;;;;;;2276388;61;1046;-85
2022/09/01 02:55:21;385328.00;1.28;664.58;75565.00;0.25;131.38;;;;;20.30;1.00;;;;;;2276324;61;1101;-85
2022/09/01 02:57:54;435157.00;1.45;750.25;73336.00;0.24;127.52;;;;;20.50;1.00;;;;;;2276243;61;1028;-84
2022/09/01 03:00:27;428966.00;1.43;739.61;80612.00;0.27;140.09;;;;;20.30;1.00;;;;;;2276282;61;1367;-85
2022/09/01 03:02:56;373977.00;1.25;645.07;69872.00;0.23;121.54;;;;;20.50;1.00;;;;;;2276334;61;1304;-85
2022/09/01 03:05:27;469796.00;1.57;809.84;71248.00;0.24;123.92;;;;;20.50;1.00;;;;;;2276255;61;1446;-86
2022/09/01 03:07:56;354267.00;1.18;611.20;0.00;0.00;0.62;;;;;20.60;1.00;;;;;;2278472;61;1982;-86
2022/09/01 03:10:31;534102.00;1.78;920.56;64552.00;0.22;112.35;;;;;20.40;1.00;;;;;;2280261;61;1559;-85
2022/09/01 03:13:00;213357.00;0.71;368.91;0.00;0.00;0.62;;;;;20.00;1.00;;;;;;2280398;61;1039;-85
2022/09/01 03:15:27;380546.00;1.27;656.36;0.00;0.00;0.62;;;;;19.90;1.00;;;;;;2280363;61;1003;-85
2022/09/01 03:17:55;251467.00;0.84;434.47;0.00;0.00;0.62;;;;;19.80;1.00;;;;;;2280335;61;1340;-85
2022/09/01 03:20:22;184313.00;0.61;318.92;0.00;0.00;0.62;;;;;19.70;1.00;;;;;;2280994;61;1284;-85
2022/09/01 03:22:52;200847.00;0.67;347.38;0.00;0.00;0.62;;;;;19.70;1.00;;;;;;2280961;61;1017;-84
2022/09/01 03:25:19;184183.00;0.61;318.69;0.00;0.00;0.62;;;;;19.40;1.00;;;;;;2281065;61;991;-84
2022/09/01 03:27:47;640729.00;2.14;1104.60;69062.00;0.23;120.14;;;;;19.20;1.00;;;;;;2279450;61;1989;-83
2022/09/01 03:30:14;336429.00;1.12;580.54;75256.00;0.25;130.84;;;;;19.50;1.00;;;;;;2276929;61;1396;-84
2022/09/01 03:32:41;440336.00;1.47;759.16;77766.00;0.26;135.18;;;;;19.70;1.00;;;;;;2276953;61;1034;-85
2022/09/01 03:35:09;117374928.00;391.25;65501960.00;73327.00;0.24;127.51;;;;;19.90;1.00;;;;;;2276841;61;1096;-87
2022/09/01 03:37:36;488102.00;1.63;841.34;115239.00;0.38;199.87;;;;;19.80;1.00;;;;;;2277667;61;951;-84
2022/09/01 03:40:08;370782.00;1.24;639.58;73723.00;0.25;128.19;;;;;20.00;1.00;;;;;;2280898;61;1405;-87
2022/09/01 03:42:36;444147.00;1.48;765.72;73126.00;0.24;127.16;;;;;20.30;1.00;;;;;;2280946;61;1046;-86
2022/09/01 03:45:07;471856.00;1.57;813.38;65174.00;0.22;113.42;;;;;20.50;1.00;;;;;;2280961;61;999;-85
2022/09/01 03:47:38;534526.00;1.78;921.29;68487.00;0.23;119.15;;;;;20.60;1.00;;;;;;2280336;61;2012;-85
2022/09/01 03:50:06;331761.00;1.11;572.51;68065.00;0.23;118.42;;;;;20.50;1.00;;;;;;2276842;61;1391;-84
2022/09/01 03:52:33;419110.00;1.40;722.66;72215.00;0.24;125.59;;;;;20.50;1.00;;;;;;2276842;61;1735;-84
2022/09/01 03:55:00;475227.00;1.58;819.18;73194.00;0.24;127.28;;;;;20.30;1.00;;;;;;2276868;61;955;-85
2022/09/01 03:57:28;359148.00;1.20;619.58;69293.00;0.23;120.54;;;;;20.20;1.00;;;;;;2276323;61;2442;-86
2022/09/01 03:59:55;643076.00;2.14;1108.66;71123.00;0.24;123.70;;;;;20.10;1.00;;;;;;2276751;61;1452;-86
2022/09/01 04:02:22;330771.00;1.10;570.81;63094.00;0.21;109.83;;;;;20.30;1.00;;;;;;2276810;61;1099;-86
2022/09/01 04:04:49;405683.00;1.35;699.58;70349.00;0.23;122.36;;;;;20.50;1.00;;;;;;2276872;61;1042;-86
2022/09/01 04:07:16;420356.00;1.40;724.80;75170.00;0.25;130.69;;;;;20.70;1.00;;;;;;2276875;61;1125;-86
2022/09/01 04:09:43;362897.00;1.21;626.03;74804.00;0.25;130.06;;;;;20.70;1.00;;;;;;2276766;61;2020;-87
2022/09/01 04:12:12;278922.00;0.93;481.68;71709.00;0.24;124.71;;;;;20.80;1.00;;;;;;2276796;61;1117;-87
2022/09/01 04:14:40;358337.00;1.19;618.19;63462.00;0.21;110.46;;;;;20.90;1.00;;;;;;2276794;61;1149;-86
2022/09/01 04:19:51;527105.00;1.76;908.50;125484.00;0.42;217.54;;;;;20.50;1.00;;;;;;2276825;61;1426;-86
2022/09/01 04:22:19;397183.00;1.32;684.96;69077.00;0.23;120.17;;;;;20.40;1.00;;;;;;2276764;61;1062;-87
2022/09/01 04:24:46;97182.00;0.32;168.71;0.00;0.00;0.62;;;;;20.30;1.00;;;;;;2276778;61;1097;-83
2022/09/01 04:27:16;296081.00;0.99;511.18;0.00;0.00;0.62;;;;;20.30;1.00;;;;;;2276757;61;1490;-85
2022/09/01 04:29:45;258093.00;0.86;445.87;79547.00;0.27;138.25;;;;;20.30;1.00;;;;;;2276661;61;2009;-89
2022/09/01 04:32:14;80312.00;0.27;139.58;0.00;0.00;0.62;;;;;19.80;1.00;;;;;;2276681;61;1256;-85
2022/09/01 04:34:41;130425.00;0.43;226.06;0.00;0.00;0.62;;;;;19.60;1.00;;;;;;2276623;61;1717;-83
2022/09/01 04:37:11;88350.00;0.29;153.46;0.00;0.00;0.62;;;;;19.70;1.00;;;;;;2276711;61;1065;-84
2022/09/01 04:39:38;45229.00;0.15;78.93;0.00;0.00;0.62;;;;;19.70;1.00;;;;;;2279460;61;1304;-84
2022/09/01 04:42:07;24250.00;0.08;42.63;0.00;0.00;0.62;;;;;19.50;1.00;;;;;;2280739;61;1093;-84
2022/09/01 04:44:35;83844.00;0.28;145.68;0.00;0.00;0.62;;;;;19.30;1.00;;;;;;2280640;61;1263;-85
2022/09/01 04:47:09;349393.00;1.16;602.82;45644.00;0.15;79.65;;;;;19.40;1.00;;;;;;2280799;61;1141;-85
2022/09/01 04:49:36;98783.00;0.33;171.47;0.00;0.00;0.62;;;;;19.70;1.00;;;;;;2278386;61;1926;-86
2022/09/01 04:52:04;151976.00;0.51;263.21;0.00;0.00;0.62;;;;;20.10;1.00;;;;;;2276653;61;911;-85
2022/09/01 04:54:35;209136.00;0.70;361.65;0.00;0.00;0.62;;;;;20.20;1.00;;;;;;2276711;61;1076;-86
2022/09/01 04:57:04;331146.00;1.10;571.46;24204.00;0.08;42.55;;;;;20.50;1.00;;;;;;2276601;61;1151;-85
2022/09/01 04:59:31;240716.00;0.80;415.98;0.00;0.00;0.62;;;;;20.50;1.00;;;;;;2276577;61;1412;-85
2022/09/01 05:01:59;282552.00;0.94;487.92;0.00;0.00;0.62;;;;;20.30;1.00;;;;;;2276656;61;1137;-86
2022/09/01 05:04:32;44707.00;0.15;78.03;0.00;0.00;0.62;;;;;20.50;1.00;;;;;;2276688;61;1112;-86
2022/09/01 05:07:00;239119.00;0.80;413.24;0.00;0.00;0.62;;;;;20.50;1.00;;;;;;2276588;61;959;-85
2022/09/01 05:09:29;82923.00;0.28;144.09;0.00;0.00;0.62;;;;;20.50;1.00;;;;;;2276455;61;1915;-86
2022/09/01 05:12:09;412080.00;1.37;710.57;0.00;0.00;0.62;;;;;20.40;1.00;;;;;;2276617;61;1080;-85
2022/09/01 05:14:37;115276.00;0.38;199.93;0.00;0.00;0.62;;;;;20.60;1.00;;;;;;2276594;61;1526;-86
2022/09/01 05:17:09;123352.00;0.41;213.86;0.00;0.00;0.62;;;;;20.60;1.00;;;;;;2276595;61;1287;-86
2022/09/01 05:19:37;165174.00;0.55;285.95;0.00;0.00;0.62;;;;;20.30;1.00;;;;;;2276605;61;1415;-86
2022/09/01 05:22:07;245851.00;0.82;424.82;0.00;0.00;0.62;;;;;20.40;1.00;;;;;;2276583;61;1113;-86
2022/09/01 05:24:35;82484.00;0.27;143.33;0.00;0.00;0.62;;;;;20.50;1.00;;;;;;2276637;61;1097;-86
2022/09/01 05:27:03;370304.00;1.23;638.76;18820.00;0.06;33.23;;;;;20.80;1.00;;;;;;2276551;61;1023;-87
2022/09/01 05:29:31;305959.00;1.02;528.16;0.00;0.00;0.62;;;;;20.90;1.00;;;;;;2276550;61;1988;-86
2022/09/01 05:31:59;189960.00;0.63;328.64;0.00;0.00;0.62;;;;;20.80;1.00;;;;;;2276551;61;953;-86
2022/09/01 05:34:28;57028.00;0.19;99.34;0.00;0.00;0.62;;;;;21.00;1.00;;;;;;2276538;61;1102;-86
2022/09/01 05:37:00;9226.00;0.03;16.61;0.00;0.00;0.62;;;;;21.10;1.00;;;;;;2276574;61;1120;-89
2022/09/01 05:39:28;51527.00;0.17;89.83;0.00;0.00;0.62;;;;;21.20;1.00;;;;;;2276529;61;1424;-86
2022/09/01 05:41:56;172161.00;0.57;297.99;0.00;0.00;0.62;;;;;21.30;1.00;;;;;;2276506;61;935;-86
2022/09/01 05:44:23;80278.00;0.27;139.52;0.00;0.00;0.62;;;;;21.40;1.00;;;;;;2276572;61;1234;-84
2022/09/01 05:46:51;123585.00;0.41;214.27;0.00;0.00;0.62;;;;;21.50;1.00;;;;;;2276565;61;1006;-87
2022/09/01 05:49:19;39186.00;0.13;68.48;0.00;0.00;0.62;;;;;21.30;1.00;;;;;;2276407;61;1946;-87
2022/09/01 05:51:50;310934.00;1.04;536.71;0.00;0.00;0.62;;;;;20.90;1.00;;;;;;2276456;61;1070;-86
2022/09/01 05:54:21;68203.00;0.23;118.66;0.00;0.00;0.62;;;;;21.10;1.00;;;;;;2276451;61;1033;-86
2022/09/01 05:56:49;149385.00;0.50;258.75;0.00;0.00;0.62;;;;;21.40;1.00;;;;;;2276576;61;1300;-87
2022/09/01 05:59:16;123476.00;0.41;214.08;0.00;0.00;0.62;;;;;21.50;1.00;;;;;;2276604;61;1297;-86
2022/09/01 06:01:46;184258.00;0.61;318.82;0.00;0.00;0.62;;;;;21.70;1.00;;;;;;2276586;61;1195;-85
2022/09/01 06:04:14;52778.00;0.18;91.99;0.00;0.00;0.62;;;;;21.90;1.00;;;;;;2276506;61;1054;-86
2022/09/01 06:06:45;136830.00;0.46;237.11;0.00;0.00;0.62;;;;;22.00;1.00;;;;;;2279766;61;1135;-86
2022/09/01 06:09:14;863103.00;2.88;1491.41;267056.00;0.89;461.28;;;;;22.10;1.00;;;;;;2280533;61;1913;-86
2022/09/01 06:11:42;3611.00;0.01;6.88;0.00;0.00;0.62;;;;;21.70;1.00;;;;;;2280570;61;1552;-86
2022/09/01 06:14:10;252979.00;0.84;437.07;39203.00;0.13;68.51;;;;;21.50;1.00;;;;;;2280541;61;1028;-85
2022/09/01 06:16:38;102967.00;0.34;178.69;0.00;0.00;0.62;;;;;21.60;1.00;;;;;;2277598;61;1013;-87
2022/09/01 06:19:05;204340.00;0.68;353.39;0.00;0.00;0.62;;;;;21.90;1.00;;;;;;2276398;61;1297;-87
2022/09/01 06:21:33;215885.00;0.72;373.26;0.00;0.00;0.62;;;;;22.00;1.00;;;;;;2276274;61;1538;-86
2022/09/01 06:24:00;408084.00;1.36;703.70;10032.00;0.03;18.00;;;;;21.90;1.00;;;;;;2276423;61;961;-85
2022/09/01 06:26:29;205328.00;0.68;355.09;0.00;0.00;0.62;;;;;21.20;1.00;;;;;;2276448;61;1965;-86
2022/09/01 06:29:00;336233.00;1.12;580.20;0.00;0.00;0.62;;;;;21.20;1.00;;;;;;2276283;61;2016;-86
2022/09/01 06:31:32;189094.00;0.63;327.15;0.00;0.00;0.62;;;;;21.30;1.00;;;;;;2276409;61;1571;-86
2022/09/01 06:34:01;70521.00;0.24;122.66;0.00;0.00;0.62;;;;;21.90;1.00;;;;;;2276407;61;998;-86
2022/09/01 06:36:31;237947.00;0.79;411.22;0.00;0.00;0.62;;;;;21.80;1.00;;;;;;2276361;61;1611;-86
2022/09/01 06:39:00;0.00;0.00;0.62;0.00;0.00;0.62;;;;;21.90;1.00;;;;;;2276418;61;1365;-86
2022/09/01 06:41:27;196261.00;0.65;339.49;0.00;0.00;0.62;;;;;21.70;1.00;;;;;;2276260;61;1124;-86
2022/09/01 06:43:55;208150.00;0.69;359.95;73354.00;0.24;127.56;;;;;21.90;1.00;;;;;;2276389;61;981;-87
2022/09/01 06:46:26;523830.00;1.75;902.86;56227.00;0.19;97.95;;;;;22.20;1.00;;;;;;2277690;61;1558;-87
2022/09/01 06:48:57;252997.00;0.84;437.11;0.00;0.00;0.62;;;;;22.20;1.00;;;;;;2280303;61;2010;-86
2022/09/01 06:51:25;62127.00;0.21;108.15;0.00;0.00;0.62;;;;;22.60;1.00;;;;;;2280365;61;1143;-86
2022/09/01 06:53:55;298360.00;0.99;515.10;0.00;0.00;0.62;;;;;22.90;1.00;;;;;;2280690;61;1132;-87
2022/09/01 06:56:23;187565.00;0.63;324.52;0.00;0.00;0.62;;;;;22.90;1.00;;;;;;2277286;61;1499;-86
2022/09/01 06:58:53;369122.00;1.23;636.73;56292.00;0.19;98.07;;;;;22.70;1.00;;;;;;2276979;61;1287;-86
2022/09/01 07:01:24;333512.00;1.11;575.52;11359.00;0.04;20.30;;;;;22.40;1.00;;;;;;2277037;61;1559;-86
2022/09/01 07:03:54;458206.00;1.53;789.90;139645.00;0.47;241.96;;;;;22.50;1.00;;;;;;2276787;61;1464;-86
2022/09/01 07:06:23;351870.00;1.17;607.08;99972.00;0.33;173.52;;;;;22.30;1.00;;;;;;2277073;61;1160;-87
2022/09/01 07:08:53;145227.00;0.48;251.58;23928.00;0.08;42.07;;;;;22.40;1.00;;;;;;2276963;61;1985;-85
2022/09/01 07:11:26;173242.00;0.58;299.85;0.00;0.00;0.62;;;;;22.10;1.00;;;;;;2277017;61;1560;-87
2022/09/01 07:13:56;329045.00;1.10;567.84;98385.00;0.33;170.78;;;;;22.20;1.00;;;;;;2277064;61;1141;-86
2022/09/01 07:16:26;270730.00;0.90;467.60;0.00;0.00;0.62;;;;;22.20;1.00;;;;;;2277026;61;1103;-84
2022/09/01 07:18:57;116255.00;0.39;201.62;0.00;0.00;0.62;;;;;22.20;1.00;;;;;;2276765;61;1454;-84
2022/09/01 07:21:25;218373.00;0.73;377.54;0.00;0.00;0.62;;;;;22.10;1.00;;;;;;2276729;61;995;-87
2022/09/01 07:23:52;311527.00;1.04;537.73;0.00;0.00;0.62;;;;;22.50;1.00;;;;;;2276829;61;1116;-87
2022/09/01 07:26:23;36532.00;0.12;63.89;0.00;0.00;0.62;;;;;22.60;1.00;;;;;;2276758;61;1104;-87
2022/09/01 07:28:51;106809.00;0.36;185.32;0.00;0.00;0.62;;;;;22.70;1.00;;;;;;2276731;61;1923;-85
2022/09/01 07:31:21;193336.00;0.64;334.45;0.00;0.00;0.62;;;;;23.00;1.00;;;;;;2276755;61;1106;-86
2022/09/01 07:33:51;86792.00;0.29;150.77;0.00;0.00;0.62;;;;;24.00;1.00;;;;;;2277024;61;1129;-86
2022/09/01 07:36:19;169355.00;0.56;293.16;0.00;0.00;0.62;;;;;25.40;1.00;;;;;;2276932;61;1195;-86
2022/09/01 07:38:50;454463.00;1.51;783.46;0.00;0.00;0.62;;;;;25.80;1.00;;;;;;2276688;61;1450;-85
2022/09/01 07:41:17;175940.00;0.59;304.50;0.00;0.00;0.62;;;;;26.10;1.00;;;;;;2276759;61;1386;-86
2022/09/01 07:43:44;177740.00;0.59;307.60;0.00;0.00;0.62;;;;;26.20;1.00;;;;;;2276904;61;1157;-86
2022/09/01 07:46:12;203948.00;0.68;352.72;0.00;0.00;0.62;;;;;25.50;1.00;;;;;;2276708;61;1601;-85
2022/09/01 07:48:39;207843.00;0.69;359.42;0.00;0.00;0.62;;;;;26.40;1.00;;;;;;2276737;61;1998;-85
2022/09/01 07:51:08;322439.00;1.07;556.49;0.00;0.00;0.62;;;;;26.40;1.00;;;;;;2276498;61;1160;-85
2022/09/01 07:53:36;265670.00;0.89;458.90;0.00;0.00;0.62;;;;;26.40;1.00;;;;;;2276645;61;1388;-85
2022/09/01 07:56:08;49114.00;0.16;85.65;0.00;0.00;0.62;;;;;26.00;1.00;;;;;;2276742;61;1069;-85
2022/09/01 07:58:37;117145.00;0.39;203.16;0.00;0.00;0.62;;;;;25.50;1.00;;;;;;2276725;61;1358;-85
2022/09/01 08:01:08;139598.00;0.47;241.88;0.00;0.00;0.62;;;;;25.50;1.00;;;;;;2276695;61;1085;-86
2022/09/01 08:03:36;313505.00;1.05;541.13;33736.00;0.11;59.05;;;;;25.20;1.00;;;;;;2276702;61;1096;-87
2022/09/01 08:06:05;531524.00;1.77;916.12;0.00;0.00;0.62;;;;;25.60;1.00;;;;;;2276282;61;1183;-85
2022/09/01 08:08:34;182928.00;0.61;316.53;0.00;0.00;0.62;;;;;26.20;1.00;;;;;;2276648;61;1348;-86
2022/09/01 08:11:01;275966.00;0.92;476.60;0.00;0.00;0.62;;;;;26.10;1.00;;;;;;2276762;61;2014;-87
2022/09/01 08:13:29;163730.00;0.55;283.47;0.00;0.00;0.62;;;;;26.40;1.00;;;;;;2276764;61;1150;-87
2022/09/01 08:15:56;303989.00;1.01;524.78;0.00;0.00;0.62;;;;;26.70;1.00;;;;;;2276616;61;1720;-83
2022/09/01 08:18:23;304912.00;1.02;526.36;16385.00;0.05;29.01;;;;;26.30;1.00;;;;;;2276643;61;1370;-85
2022/09/01 08:20:50;258133.00;0.86;445.94;0.00;0.00;0.62;;;;;25.60;1.00;;;;;;2276779;61;1483;-87
2022/09/01 08:23:19;335523.00;1.12;578.98;0.00;0.00;0.62;;;;;25.40;1.00;;;;;;2276538;61;1058;-87
2022/09/01 08:25:48;185635.00;0.62;321.19;0.00;0.00;0.62;;;;;24.40;1.00;;;;;;2276579;61;2023;-86
2022/09/01 08:28:17;151250.00;0.50;261.96;0.00;0.00;0.62;;;;;24.50;1.00;;;;;;2276624;61;2260;-87
2022/09/01 08:30:47;366771.00;1.22;632.69;54318.00;0.18;94.65;;;;;24.00;1.00;;;;;;2276551;61;1928;-85
2022/09/01 08:33:15;280287.00;0.93;484.03;0.00;0.00;0.62;;;;;23.70;1.00;;;;;;2276485;61;1531;-85
2022/09/01 08:35:46;220548.00;0.74;381.29;0.00;0.00;0.62;;;;;23.80;1.00;;;;;;2276657;61;919;-85
2022/09/01 08:38:13;313390.00;1.04;540.94;77468.00;0.26;134.66;;;;;24.30;1.00;;;;;;2276583;61;1598;-86
2022/09/01 08:40:42;348982.00;1.16;602.11;67157.00;0.22;116.85;;;;;24.10;1.00;;;;;;2276401;61;1196;-87
2022/09/01 08:43:24;334138.00;1.11;576.60;109677.00;0.37;190.27;;;;;23.90;1.00;;;;;;2276610;61;1603;-86
2022/09/01 08:45:54;218962.00;0.73;378.56;0.00;0.00;0.62;;;;;23.80;1.00;;;;;;2276530;61;1033;-86
2022/09/01 08:48:27;236740.00;0.79;409.14;0.00;0.00;0.62;;;;;24.00;1.00;;;;;;2276484;61;1470;-86
2022/09/01 08:51:06;350224.00;1.17;604.25;0.00;0.00;0.62;;;;;23.90;1.00;;;;;;2276522;61;2044;-87
2022/09/01 08:53:41;315709.00;1.05;544.92;0.00;0.00;0.62;;;;;23.70;1.00;;;;;;2276541;61;1538;-87
2022/09/01 08:56:11;223328.00;0.74;386.07;0.00;0.00;0.62;;;;;24.00;1.00;;;;;;2276607;61;1270;-86
2022/09/01 08:58:39;139150.00;0.46;241.11;0.00;0.00;0.62;;;;;23.50;1.00;;;;;;2276639;61;1409;-87
2022/09/01 09:01:15;367266.00;1.22;633.54;0.00;0.00;0.62;;;;;23.30;1.00;;;;;;2276449;61;1643;-85
2022/09/01 09:03:51;151048.00;0.50;261.61;0.00;0.00;0.62;;;;;23.50;1.00;;;;;;2276633;61;942;-86
2022/09/01 09:06:24;334198.00;1.11;576.70;0.00;0.00;0.62;;;;;24.10;1.00;;;;;;2276533;61;1589;-87
2022/09/01 09:08:57;349379.00;1.16;602.79;51470.00;0.17;89.73;;;;;24.10;1.00;;;;;;2276497;61;1375;-87
2022/09/01 09:11:51;289128.00;0.96;499.23;0.00;0.00;0.62;;;;;23.40;1.00;;;;;;2276357;61;1981;-87
2022/09/01 09:14:37;215529.00;0.72;372.65;20663.00;0.07;36.42;;;;;23.50;1.00;;;;;;2276436;61;1033;-88
2022/09/01 09:17:05;148050.00;0.49;256.45;0.00;0.00;0.62;;;;;23.50;1.00;;;;;;2276424;61;1072;-87
2022/09/01 09:19:35;484803.00;1.62;835.66;0.00;0.00;0.62;;;;;23.70;1.00;;;;;;2276376;61;1595;-87
2022/09/01 09:22:06;451817.00;1.51;778.91;0.00;0.00;0.62;;;;;23.60;1.00;;;;;;2276298;61;1145;-85
2022/09/01 09:24:47;300029.00;1.00;517.97;0.00;0.00;0.62;;;;;22.90;1.00;;;;;;2276414;61;1609;-87
2022/09/01 09:27:19;178157.00;0.59;308.32;0.00;0.00;0.62;;;;;23.10;1.00;;;;;;2276595;61;1181;-87
2022/09/01 09:29:51;162760.00;0.54;281.79;0.00;0.00;0.62;;;;;23.30;1.00;;;;;;2276349;61;2016;-87
2022/09/01 09:32:19;383241.00;1.28;661.00;75029.00;0.25;130.45;;;;;23.20;1.00;;;;;;2276536;61;1069;-87
2022/09/01 09:34:46;357650.00;1.19;617.01;0.00;0.00;0.62;;;;;23.50;1.00;;;;;;2276450;61;1781;-86
2022/09/01 09:37:24;362514.00;1.21;625.37;0.00;0.00;0.62;;;;;23.80;1.00;;;;;;2276479;61;1379;-85
2022/09/01 09:40:14;246690.00;0.82;426.26;0.00;0.00;0.62;;;;;24.40;1.00;;;;;;2276537;61;1475;-87
2022/09/01 09:43:00;347035.00;1.16;598.77;18134.00;0.06;32.04;;;;;25.20;1.00;;;;;;2276482;61;1172;-88
2022/09/01 09:45:32;400382.00;1.33;690.46;64491.00;0.21;112.24;;;;;25.30;1.00;;;;;;2276606;61;1673;-86
2022/09/01 09:48:00;456429.00;1.52;786.84;112204.00;0.37;194.63;;;;;25.50;1.00;;;;;;2276432;61;1171;-86
2022/09/01 09:50:29;354958.00;1.18;612.38;0.00;0.00;0.62;;;;;25.80;1.00;;;;;;2276461;61;1928;-86
2022/09/01 09:53:14;201233.00;0.67;348.05;0.00;0.00;0.62;;;;;25.70;1.00;;;;;;2276515;61;1000;-87
2022/09/01 09:55:57;309375.00;1.03;534.04;64634.00;0.22;112.49;;;;;25.00;1.00;;;;;;2276490;61;1048;-86
2022/09/01 09:58:29;501748.00;1.67;864.83;62043.00;0.21;108.01;;;;;25.10;1.00;;;;;;2276312;61;1535;-87
2022/09/01 10:01:04;396353.00;1.32;683.54;63755.00;0.21;110.97;;;;;25.10;1.00;;;;;;2276456;61;1625;-86